createdAt,value
2019-01-29T00:02:23.153Z,3.50
2019-01-29T00:04:51.612Z,3.46
2019-01-29T00:07:20.120Z,3.49
2019-01-29T00:09:48.584Z,3.49
2019-01-29T00:12:17.038Z,3.44
2019-01-29T00:14:46.577Z,3.38
2019-01-29T00:17:15.031Z,3.41
2019-01-29T00:19:43.476Z,3.37
2019-01-29T00:22:11.957Z,3.37
2019-01-29T00:24:40.406Z,3.21
2019-01-29T00:27:08.859Z,3.21
2019-01-29T00:29:37.417Z,3.14
2019-01-29T00:32:05.868Z,3.03
2019-01-29T00:34:34.334Z,2.94
2019-01-29T00:37:02.815Z,2.87
2019-01-29T00:39:31.263Z,2.81
2019-01-29T00:41:59.711Z,2.75
2019-01-29T00:44:28.211Z,2.69
2019-01-29T00:46:56.660Z,2.65
2019-01-29T00:49:25.111Z,2.62
2019-01-29T00:51:53.611Z,2.59
2019-01-29T00:54:22.061Z,2.58
2019-01-29T00:56:50.519Z,2.56
2019-01-29T00:59:19.009Z,2.56
2019-01-29T01:01:47.459Z,2.57
2019-01-29T01:04:15.911Z,2.56
2019-01-29T01:06:44.414Z,2.56
2019-01-29T01:09:12.873Z,2.58
2019-01-29T01:11:41.325Z,2.58
2019-01-29T01:14:09.808Z,2.57
2019-01-29T01:16:38.382Z,2.56
2019-01-29T01:19:06.900Z,2.57
2019-01-29T01:21:35.399Z,2.55
2019-01-29T01:24:03.844Z,2.54
2019-01-29T01:26:32.292Z,2.52
2019-01-29T01:29:00.794Z,2.50
2019-01-29T01:31:29.252Z,2.47
2019-01-29T01:33:57.697Z,2.45
2019-01-29T01:36:26.211Z,2.44
2019-01-29T01:38:54.650Z,2.42
2019-01-29T01:41:23.092Z,2.40
2019-01-29T01:43:51.582Z,2.41
2019-01-29T01:46:20.030Z,2.41
2019-01-29T01:48:48.505Z,2.39
2019-01-29T01:51:16.995Z,2.38
2019-01-29T01:53:45.438Z,2.36
2019-01-29T01:56:13.898Z,2.36
2019-01-29T01:58:42.421Z,2.36
2019-01-29T02:01:10.955Z,2.37
2019-01-29T02:03:39.456Z,2.35
2019-01-29T02:06:07.945Z,2.35
2019-01-29T02:08:36.394Z,2.35
2019-01-29T02:11:04.931Z,2.34
2019-01-29T02:13:33.418Z,2.31
2019-01-29T02:16:01.856Z,2.27
2019-01-29T02:18:31.190Z,2.25
2019-01-29T02:20:59.679Z,2.20
2019-01-29T02:23:28.130Z,2.18
2019-01-29T02:25:56.591Z,2.13
2019-01-29T02:28:25.087Z,2.11
2019-01-29T02:30:53.613Z,2.08
2019-01-29T02:33:24.975Z,2.05
2019-01-29T02:35:52.293Z,2.03
2019-01-29T02:38:20.749Z,2.01
2019-01-29T02:40:49.203Z,1.98
2019-01-29T02:43:17.688Z,1.97
2019-01-29T02:45:46.131Z,1.95
2019-01-29T02:48:14.577Z,1.93
2019-01-29T02:50:43.094Z,1.93
2019-01-29T02:53:18.119Z,1.90
2019-01-29T02:55:41.761Z,1.88
2019-01-29T02:58:10.302Z,1.86
2019-01-29T03:00:38.743Z,1.84
2019-01-29T03:03:07.195Z,1.82
2019-01-29T03:05:35.677Z,1.79
2019-01-29T03:08:04.192Z,1.77
2019-01-29T03:10:32.639Z,1.73
2019-01-29T03:13:01.123Z,1.71
2019-01-29T03:15:31.411Z,1.68
2019-01-29T03:17:59.943Z,1.65
2019-01-29T03:20:28.734Z,1.62
2019-01-29T03:22:57.247Z,1.61
2019-01-29T03:25:25.772Z,1.58
2019-01-29T03:27:54.241Z,1.57
2019-01-29T03:30:23.360Z,1.54
2019-01-29T03:32:51.806Z,1.53
2019-01-29T03:35:20.345Z,1.51
2019-01-29T03:37:48.861Z,1.48
2019-01-29T03:40:22.871Z,1.46
2019-01-29T03:42:51.414Z,1.43
2019-01-29T03:45:19.866Z,1.42
2019-01-29T03:47:48.384Z,1.40
2019-01-29T03:50:18.936Z,1.36
2019-01-29T03:52:47.467Z,1.33
2019-01-29T03:55:15.998Z,1.31
2019-01-29T03:57:44.550Z,1.28
2019-01-29T04:00:16.180Z,1.24
2019-01-29T04:02:44.639Z,1.22
2019-01-29T04:05:13.200Z,1.21
2019-01-29T04:07:41.655Z,1.21
2019-01-29T04:10:15.751Z,1.20
2019-01-29T04:12:44.318Z,1.21
2019-01-29T04:15:15.306Z,1.22
2019-01-29T04:17:43.830Z,1.21
2019-01-29T04:20:15.174Z,1.06
2019-01-29T04:22:45.998Z,1.23
2019-01-29T04:25:14.762Z,1.24
2019-01-29T04:27:43.317Z,1.25
2019-01-29T04:30:16.827Z,1.25
2019-01-29T04:32:45.353Z,1.26
2019-01-29T04:35:13.926Z,1.27
2019-01-29T04:37:42.367Z,1.27
2019-01-29T04:40:13.572Z,1.28
2019-01-29T04:42:42.049Z,1.29
2019-01-29T04:45:13.134Z,1.29
2019-01-29T04:47:41.664Z,1.29
2019-01-29T04:50:15.488Z,1.29
2019-01-29T04:52:43.952Z,1.28
2019-01-29T04:55:17.201Z,1.27
2019-01-29T04:57:45.759Z,1.26
2019-01-29T05:00:19.225Z,1.25
2019-01-29T05:02:47.729Z,1.25
2019-01-29T05:05:16.937Z,1.26
2019-01-29T05:07:45.555Z,1.24
2019-01-29T05:10:16.871Z,1.24
2019-01-29T05:12:45.429Z,1.24
2019-01-29T05:15:15.904Z,1.23
2019-01-29T05:17:44.366Z,1.23
2019-01-29T05:20:18.182Z,1.23
2019-01-29T05:22:46.631Z,1.21
2019-01-29T05:25:16.125Z,1.17
2019-01-29T05:27:44.767Z,1.14
2019-01-29T05:30:21.257Z,1.08
2019-01-29T05:32:49.840Z,1.04
2019-01-29T05:35:18.296Z,0.97
2019-01-29T05:37:46.747Z,0.92
2019-01-29T05:40:17.593Z,0.88
2019-01-29T05:42:46.051Z,0.82
2019-01-29T05:45:17.116Z,0.78
2019-01-29T05:47:45.598Z,0.74
2019-01-29T05:50:15.574Z,0.68
2019-01-29T05:52:44.026Z,0.64
2019-01-29T05:55:14.263Z,0.58
2019-01-29T05:57:42.774Z,0.55
2019-01-29T06:00:27.453Z,0.51
2019-01-29T06:02:55.908Z,0.48
2019-01-29T06:05:24.523Z,0.45
2019-01-29T06:07:52.999Z,0.39
2019-01-29T06:10:21.455Z,0.36
2019-01-29T06:12:49.957Z,0.33
2019-01-29T06:15:23.301Z,0.30
2019-01-29T06:17:51.829Z,0.26
2019-01-29T06:20:22.623Z,0.24
2019-01-29T06:22:51.165Z,0.21
2019-01-29T06:25:19.706Z,0.20
2019-01-29T06:27:48.561Z,0.18
2019-01-29T06:30:21.956Z,0.16
2019-01-29T06:32:50.469Z,0.11
2019-01-29T06:35:19.497Z,0.09
2019-01-29T06:37:47.992Z,0.04
2019-01-29T06:40:27.056Z,-0.01
2019-01-29T06:42:55.556Z,-0.04
2019-01-29T06:45:25.749Z,-0.09
2019-01-29T06:47:54.653Z,-0.12
2019-01-29T06:50:25.507Z,-0.18
2019-01-29T06:52:54.099Z,-0.19
2019-01-29T06:55:23.789Z,-0.20
2019-01-29T06:57:55.664Z,-0.19
2019-01-29T07:00:27.998Z,-0.19
2019-01-29T07:02:56.833Z,-0.17
2019-01-29T07:05:25.299Z,-0.15
2019-01-29T07:07:53.770Z,-0.15
2019-01-29T07:10:23.818Z,-0.15
2019-01-29T07:12:52.350Z,-0.16
2019-01-29T07:15:41.340Z,-0.18
2019-01-29T07:18:11.506Z,-0.20
2019-01-29T07:20:40.044Z,-0.23
2019-01-29T07:23:08.558Z,-0.23
2019-01-29T07:25:37.029Z,-0.24
2019-01-29T07:28:05.717Z,-0.23
2019-01-29T07:30:34.366Z,-0.25
2019-01-29T07:33:02.925Z,-0.27
2019-01-29T07:35:31.472Z,-0.30
2019-01-29T07:37:59.971Z,-0.33
2019-01-29T07:40:28.510Z,-0.35
2019-01-29T07:42:56.957Z,-0.39
2019-01-29T07:45:25.795Z,-0.41
2019-01-29T07:47:54.334Z,-0.45
2019-01-29T07:50:23.203Z,-0.46
2019-01-29T07:52:51.711Z,-0.47
2019-01-29T07:55:20.247Z,-0.47
2019-01-29T07:57:48.796Z,-0.46
2019-01-29T08:00:17.927Z,-0.44
2019-01-29T08:02:46.577Z,-0.41
2019-01-29T08:05:15.055Z,-0.38
2019-01-29T08:07:43.615Z,-0.36
2019-01-29T08:10:18.149Z,-0.35
2019-01-29T08:12:46.704Z,-0.34
2019-01-29T08:15:20.213Z,-0.34
2019-01-29T08:17:48.826Z,-0.31
2019-01-29T08:20:18.213Z,-0.30
2019-01-29T08:22:46.698Z,-0.28
2019-01-29T08:25:15.700Z,-0.25
2019-01-29T08:27:44.146Z,-0.25
2019-01-29T08:30:15.143Z,-0.22
2019-01-29T08:32:43.723Z,-0.18
2019-01-29T08:35:14.136Z,-0.14
2019-01-29T08:37:42.633Z,-0.10
2019-01-29T08:40:15.439Z,-0.05
2019-01-29T08:42:43.903Z,-0.01
2019-01-29T08:45:15.539Z,0.07
2019-01-29T08:47:44.002Z,0.14
2019-01-29T08:50:26.649Z,0.20
2019-01-29T08:52:55.180Z,0.28
2019-01-29T08:55:23.646Z,0.37
2019-01-29T08:57:52.145Z,0.44
2019-01-29T09:00:24.050Z,0.54
2019-01-29T09:02:52.661Z,0.63
2019-01-29T09:05:21.137Z,0.72
2019-01-29T09:07:49.670Z,0.79
2019-01-29T09:10:20.644Z,0.89
2019-01-29T09:12:49.228Z,0.98
2019-01-29T09:15:22.802Z,1.03
2019-01-29T09:17:51.275Z,1.08
2019-01-29T09:20:21.499Z,1.15
2019-01-29T09:22:50.181Z,1.16
2019-01-29T09:25:22.560Z,1.18
2019-01-29T09:27:48.875Z,1.19
2019-01-29T09:30:19.072Z,1.21
2019-01-29T09:32:47.877Z,1.23
2019-01-29T09:35:16.384Z,1.25
2019-01-29T09:37:44.836Z,1.28
2019-01-29T09:40:19.084Z,1.29
2019-01-29T09:42:47.673Z,1.32
2019-01-29T09:45:18.156Z,1.33
2019-01-29T09:47:48.716Z,1.34
2019-01-29T09:50:19.763Z,1.35
2019-01-29T09:52:49.498Z,1.35
2019-01-29T09:55:29.067Z,1.38
2019-01-29T09:57:50.638Z,1.40
2019-01-29T10:00:28.008Z,1.43
2019-01-29T10:02:56.594Z,1.47
2019-01-29T10:05:25.219Z,1.47
2019-01-29T10:07:53.680Z,1.50
2019-01-29T10:10:22.193Z,1.54
2019-01-29T10:12:50.668Z,1.59
2019-01-29T10:15:36.234Z,1.63
2019-01-29T10:18:05.474Z,1.67
2019-01-29T10:20:34.096Z,1.72
2019-01-29T10:23:02.581Z,1.77
2019-01-29T10:25:37.464Z,1.83
2019-01-29T10:28:01.228Z,1.89
2019-01-29T10:30:29.731Z,1.99
2019-01-29T10:32:58.532Z,2.07
2019-01-29T10:35:28.823Z,2.16
2019-01-29T10:37:57.312Z,2.27
2019-01-29T10:40:27.312Z,2.38
2019-01-29T10:42:57.401Z,2.46
2019-01-29T10:45:30.184Z,2.55
2019-01-29T10:47:58.716Z,2.73
2019-01-29T10:50:29.328Z,2.73
2019-01-29T10:52:57.891Z,2.82
2019-01-29T10:55:26.420Z,2.88
2019-01-29T10:57:54.890Z,2.99
2019-01-29T11:00:26.490Z,2.99
2019-01-29T11:02:55.028Z,3.06
2019-01-29T11:05:23.636Z,3.11
2019-01-29T11:07:52.133Z,3.21
2019-01-29T11:10:21.330Z,3.28
2019-01-29T11:12:49.956Z,3.28
2019-01-29T11:15:26.944Z,3.32
2019-01-29T11:17:55.581Z,3.32
2019-01-29T11:20:24.425Z,3.42
2019-01-29T11:22:53.066Z,3.42
2019-01-29T11:25:24.328Z,3.42
2019-01-29T11:27:52.854Z,3.41
2019-01-29T11:30:26.697Z,3.39
2019-01-29T11:32:55.394Z,3.38
2019-01-29T11:35:23.995Z,3.38
2019-01-29T11:37:52.563Z,3.33
2019-01-29T11:40:26.374Z,3.29
2019-01-29T11:42:54.845Z,3.20
2019-01-29T11:45:37.995Z,3.28
2019-01-29T11:48:06.541Z,3.28
2019-01-29T11:50:35.055Z,3.31
2019-01-29T11:53:03.622Z,3.34
2019-01-29T11:55:32.154Z,3.38
2019-01-29T11:58:00.613Z,3.41
2019-01-29T12:00:39.794Z,3.48
2019-01-29T12:03:08.334Z,3.56
2019-01-29T12:05:36.861Z,3.60
2019-01-29T12:08:06.487Z,3.60
2019-01-29T12:10:35.075Z,3.67
2019-01-29T12:13:04.397Z,3.67
2019-01-29T12:15:32.888Z,3.71
2019-01-29T12:18:01.347Z,3.72
2019-01-29T12:20:29.826Z,3.77
2019-01-29T12:22:58.376Z,3.78
2019-01-29T12:25:26.839Z,3.77
2019-01-29T12:27:55.373Z,3.73
2019-01-29T12:30:28.882Z,3.73
2019-01-29T12:32:58.875Z,3.77
2019-01-29T12:35:27.337Z,3.83
2019-01-29T12:37:56.039Z,3.83
2019-01-29T12:40:24.513Z,3.83
2019-01-29T12:42:52.985Z,3.88
2019-01-29T12:45:21.558Z,3.90
2019-01-29T12:47:50.168Z,3.93
2019-01-29T12:50:30.638Z,3.95
2019-01-29T12:53:04.011Z,3.94
2019-01-29T12:55:32.542Z,3.93
2019-01-29T12:58:01.032Z,3.90
2019-01-29T13:00:37.064Z,3.85
2019-01-29T13:03:06.379Z,3.85
2019-01-29T13:05:34.836Z,3.80
2019-01-29T13:08:03.354Z,3.72
2019-01-29T13:10:31.866Z,3.74
2019-01-29T13:13:00.388Z,3.74
2019-01-29T13:15:30.613Z,3.67
2019-01-29T13:18:00.612Z,3.70
2019-01-29T13:20:29.070Z,3.76
2019-01-29T13:22:57.666Z,3.79
2019-01-29T13:25:26.473Z,3.79
2019-01-29T13:27:54.950Z,3.83
2019-01-29T13:30:31.139Z,3.87
2019-01-29T13:32:59.800Z,3.87
2019-01-29T13:35:30.910Z,3.89
2019-01-29T13:37:59.428Z,3.89
2019-01-29T13:40:28.805Z,3.89
2019-01-29T13:42:57.255Z,3.85
2019-01-29T13:45:25.776Z,3.85
2019-01-29T13:47:54.279Z,3.92
2019-01-29T13:50:31.792Z,3.92
2019-01-29T13:53:00.293Z,3.86
2019-01-29T13:55:28.741Z,3.92
2019-01-29T13:57:57.213Z,3.94
2019-01-29T14:00:28.608Z,3.93
2019-01-29T14:02:57.062Z,3.93
2019-01-29T14:05:25.607Z,3.88
2019-01-29T14:07:54.143Z,3.88
2019-01-29T14:10:23.097Z,3.90
2019-01-29T14:12:51.568Z,3.87
2019-01-29T14:15:32.374Z,3.82
2019-01-29T14:18:00.832Z,3.83
2019-01-29T14:20:29.275Z,3.80
2019-01-29T14:22:57.791Z,3.80
2019-01-29T14:25:26.234Z,3.80
2019-01-29T14:27:54.701Z,3.78
2019-01-29T14:30:28.298Z,3.80
2019-01-29T14:32:56.765Z,3.80
2019-01-29T14:35:25.234Z,3.79
2019-01-29T14:37:59.978Z,3.78
2019-01-29T14:40:29.288Z,3.78
2019-01-29T14:42:58.413Z,3.76
2019-01-29T14:45:31.053Z,3.70
2019-01-29T14:47:59.506Z,3.73
2019-01-29T14:50:28.336Z,3.73
2019-01-29T14:52:56.821Z,3.71
2019-01-29T14:55:25.817Z,3.71
2019-01-29T14:57:54.267Z,3.74
2019-01-29T15:00:33.841Z,3.74
2019-01-29T15:03:02.291Z,3.72
2019-01-29T15:05:30.822Z,3.72
2019-01-29T15:07:59.396Z,3.67
2019-01-29T15:10:31.962Z,3.66
2019-01-29T15:13:00.565Z,3.66
2019-01-29T15:15:35.875Z,3.56
2019-01-29T15:18:15.372Z,3.51
2019-01-29T15:20:43.856Z,3.43
2019-01-29T15:23:12.347Z,3.33
2019-01-29T15:25:40.824Z,3.25
2019-01-29T15:28:09.566Z,3.15
2019-01-29T15:30:38.106Z,3.07
2019-01-29T15:33:06.736Z,2.99
2019-01-29T15:35:36.811Z,2.93
2019-01-29T15:38:05.502Z,2.91
2019-01-29T15:40:34.061Z,2.88
2019-01-29T15:43:02.586Z,2.87
2019-01-29T15:45:33.337Z,2.83
2019-01-29T15:48:01.803Z,2.80
2019-01-29T15:50:32.334Z,2.80
2019-01-29T15:53:00.935Z,2.83
2019-01-29T15:55:29.465Z,2.83
2019-01-29T15:57:58.010Z,2.87
2019-01-29T16:00:33.606Z,2.87
2019-01-29T16:03:02.144Z,2.90
2019-01-29T16:05:33.321Z,2.91
2019-01-29T16:08:01.925Z,2.91
2019-01-29T16:10:39.415Z,2.92
2019-01-29T16:13:03.781Z,2.95
2019-01-29T16:15:32.645Z,2.95
2019-01-29T16:18:01.111Z,2.98
2019-01-29T16:20:29.589Z,2.98
2019-01-29T16:22:58.050Z,3.01
2019-01-29T16:25:31.474Z,3.02
2019-01-29T16:27:59.985Z,3.06
2019-01-29T16:30:32.853Z,3.06
2019-01-29T16:33:01.948Z,3.08
2019-01-29T16:35:32.281Z,3.06
2019-01-29T16:38:00.727Z,3.06
2019-01-29T16:40:34.985Z,3.06
2019-01-29T16:43:03.479Z,3.04
2019-01-29T16:45:33.592Z,3.04
2019-01-29T16:48:03.256Z,3.01
2019-01-29T16:50:31.826Z,3.04
2019-01-29T16:53:00.517Z,3.05
2019-01-29T16:55:29.032Z,3.07
2019-01-29T16:57:57.542Z,3.06
2019-01-29T17:00:32.741Z,3.06
2019-01-29T17:03:01.699Z,3.06
2019-01-29T17:05:30.802Z,3.09
2019-01-29T17:08:00.894Z,3.10
2019-01-29T17:10:32.014Z,3.11
2019-01-29T17:13:00.482Z,3.12
2019-01-29T17:15:34.444Z,3.12
2019-01-29T17:18:03.100Z,3.12
2019-01-29T17:20:34.188Z,3.09
2019-01-29T17:23:03.234Z,2.97
2019-01-29T17:25:31.721Z,2.97
2019-01-29T17:28:00.190Z,2.99
2019-01-29T17:30:39.711Z,2.96
2019-01-29T17:33:08.783Z,3.00
2019-01-29T17:35:38.984Z,3.00
2019-01-29T17:38:07.552Z,3.01
2019-01-29T17:40:36.026Z,3.01
2019-01-29T17:43:04.821Z,2.99
2019-01-29T17:45:38.875Z,3.01
2019-01-29T17:48:07.562Z,3.01
2019-01-29T17:50:39.396Z,3.00
2019-01-29T17:53:08.014Z,3.00
2019-01-29T17:55:38.112Z,3.00
2019-01-29T17:58:07.348Z,2.99
2019-01-29T18:00:37.552Z,2.97
2019-01-29T18:03:06.830Z,2.95
2019-01-29T18:05:35.349Z,2.94
2019-01-29T18:08:04.025Z,2.94
2019-01-29T18:10:33.157Z,2.94
2019-01-29T18:13:01.586Z,2.94
2019-01-29T18:15:31.136Z,2.93
2019-01-29T18:17:59.588Z,2.94
2019-01-29T18:20:28.114Z,2.94
2019-01-29T18:22:56.682Z,2.94
2019-01-29T18:25:25.140Z,2.94
2019-01-29T18:28:01.007Z,2.93
2019-01-29T18:30:32.031Z,2.93
2019-01-29T18:33:00.597Z,2.93
2019-01-29T18:35:29.059Z,2.92
2019-01-29T18:37:57.587Z,2.92
2019-01-29T18:40:37.790Z,2.93
2019-01-29T18:43:06.555Z,2.92
2019-01-29T18:45:35.007Z,2.92
2019-01-29T18:48:03.466Z,2.91
2019-01-29T18:50:31.966Z,2.91
2019-01-29T18:53:00.604Z,2.90
2019-01-29T18:55:29.062Z,2.89
2019-01-29T18:57:57.542Z,2.92
2019-01-29T19:00:26.673Z,2.90
2019-01-29T19:02:55.121Z,2.94
2019-01-29T19:05:25.630Z,2.94
2019-01-29T19:07:54.091Z,2.94
2019-01-29T19:10:22.612Z,2.95
2019-01-29T19:12:51.247Z,2.96
2019-01-29T19:15:22.213Z,2.85
2019-01-29T19:17:50.841Z,2.96
2019-01-29T19:20:21.387Z,2.99
2019-01-29T19:22:49.850Z,2.99
2019-01-29T19:25:18.310Z,2.96
2019-01-29T19:27:46.803Z,3.02
2019-01-29T19:30:29.871Z,3.02
2019-01-29T19:32:58.399Z,3.02
2019-01-29T19:35:26.994Z,3.04
2019-01-29T19:37:55.464Z,3.05
2019-01-29T19:40:24.231Z,3.02
2019-01-29T19:42:52.691Z,3.04
2019-01-29T19:45:26.490Z,3.04
2019-01-29T19:47:56.066Z,3.02
2019-01-29T19:50:29.908Z,2.99
2019-01-29T19:52:59.258Z,3.02
2019-01-29T19:55:28.169Z,3.03
2019-01-29T19:57:56.727Z,3.01
2019-01-29T20:00:30.893Z,3.03
2019-01-29T20:02:59.463Z,3.04
2019-01-29T20:05:27.913Z,3.04
2019-01-29T20:07:56.535Z,3.06
2019-01-29T20:10:25.044Z,3.06
2019-01-29T20:12:53.556Z,3.05
2019-01-29T20:15:24.357Z,3.05
2019-01-29T20:17:54.190Z,2.99
2019-01-29T20:20:25.295Z,2.99
2019-01-29T20:22:53.838Z,2.99
2019-01-29T20:25:22.332Z,2.98
2019-01-29T20:27:53.102Z,2.95
2019-01-29T20:30:23.603Z,2.95
2019-01-29T20:32:53.447Z,2.96
2019-01-29T20:35:22.302Z,2.97
2019-01-29T20:37:50.824Z,2.97
2019-01-29T20:40:21.575Z,2.92
2019-01-29T20:42:50.036Z,2.92
2019-01-29T20:45:18.562Z,2.94
2019-01-29T20:47:47.423Z,2.91
2019-01-29T20:50:19.041Z,2.93
2019-01-29T20:52:47.508Z,2.93
2019-01-29T20:55:16.069Z,2.95
2019-01-29T20:57:44.750Z,2.94
2019-01-29T21:00:16.630Z,2.95
2019-01-29T21:02:45.135Z,2.91
2019-01-29T21:05:13.758Z,2.93
2019-01-29T21:07:42.304Z,2.90
2019-01-29T21:10:18.860Z,2.90
2019-01-29T21:12:47.324Z,2.90
2019-01-29T21:15:17.531Z,2.90
2019-01-29T21:17:46.104Z,2.90
2019-01-29T21:20:16.821Z,2.89
2019-01-29T21:22:45.363Z,2.91
2019-01-29T21:25:14.540Z,2.91
2019-01-29T21:27:43.047Z,2.92
2019-01-29T21:30:17.449Z,2.92
2019-01-29T21:32:46.068Z,2.95
2019-01-29T21:35:14.525Z,2.94
2019-01-29T21:37:43.002Z,2.94
2019-01-29T21:40:13.802Z,2.94
2019-01-29T21:42:42.290Z,2.93
2019-01-29T21:45:16.313Z,2.92
2019-01-29T21:47:44.938Z,2.88
2019-01-29T21:50:19.374Z,2.86
2019-01-29T21:52:47.930Z,2.84
2019-01-29T21:55:17.024Z,2.84
2019-01-29T21:57:45.551Z,2.81
2019-01-29T22:00:20.305Z,2.81
2019-01-29T22:02:48.764Z,2.80
2019-01-29T22:05:17.286Z,2.80
2019-01-29T22:07:45.773Z,2.76
2019-01-29T22:10:17.865Z,2.74
2019-01-29T22:12:46.402Z,2.71
2019-01-29T22:15:20.469Z,2.66
2019-01-29T22:17:49.007Z,2.62
2019-01-29T22:20:19.314Z,2.58
2019-01-29T22:22:47.817Z,2.59
2019-01-29T22:25:21.141Z,2.58
2019-01-29T22:27:49.654Z,2.58
2019-01-29T22:30:24.111Z,2.57
2019-01-29T22:32:52.567Z,2.56
2019-01-29T22:35:21.109Z,2.56
2019-01-29T22:37:49.619Z,2.55
2019-01-29T22:40:22.794Z,2.54
2019-01-29T22:42:51.254Z,2.54
2019-01-29T22:45:19.754Z,2.52
2019-01-29T22:47:48.297Z,2.51
2019-01-29T22:50:19.319Z,2.50
2019-01-29T22:52:47.814Z,2.49
2019-01-29T22:55:16.352Z,2.49
2019-01-29T22:57:44.820Z,2.48
2019-01-29T23:00:18.136Z,2.46
2019-01-29T23:02:47.645Z,2.47
2019-01-29T23:05:16.089Z,2.46
2019-01-29T23:07:44.586Z,2.45
2019-01-29T23:10:16.054Z,2.44
2019-01-29T23:12:44.517Z,2.38
2019-01-29T23:15:15.973Z,2.38
2019-01-29T23:17:44.452Z,2.40
2019-01-29T23:20:15.658Z,2.40
2019-01-29T23:22:44.178Z,2.38
2019-01-29T23:25:12.724Z,2.38
2019-01-29T23:27:41.260Z,2.38
2019-01-29T23:30:16.342Z,2.39
2019-01-29T23:32:44.878Z,2.38
2019-01-29T23:35:13.494Z,2.38
2019-01-29T23:37:41.998Z,2.38
2019-01-29T23:40:15.210Z,2.39
2019-01-29T23:42:43.676Z,2.39
2019-01-29T23:45:13.910Z,2.40
2019-01-29T23:47:42.431Z,2.40
2019-01-29T23:50:13.418Z,2.40
2019-01-29T23:52:41.929Z,2.40
2019-01-29T23:55:11.241Z,2.36
2019-01-29T23:57:39.711Z,2.34
